Time;durP1;ratioP1;P1;durP2;ratioP2;P2;SDS_P1;SDS_P2;PMS_P1;PMS_P2;Temp;Humidity;BMP_temperature;BMP_pressure;BME280_temperature;BME280_humidity;BME280_pressure;Samples;Min_cycle;Max_cycle;Signal;HPM_P1;HPM_P2
2021/06/17 00:00:17;;;;;;;8.02;4.70;;;;;;;20.66;62.44;100374.03;5055901;28;20052;-70
2021/06/17 00:02:47;;;;;;;7.88;4.68;;;;;;;20.43;63.45;100372.75;5055525;28;20053;-69
2021/06/17 00:05:18;;;;;;;8.15;4.68;;;;;;;20.43;63.32;100379.03;5055829;28;20159;-68
2021/06/17 00:07:48;;;;;;;8.40;4.50;;;;;;;20.42;63.31;100380.00;5055355;28;20045;-69
2021/06/17 00:10:25;;;;;;;6.97;4.63;;;;;;;20.44;63.31;100378.03;5055912;28;20398;-69
2021/06/17 00:12:54;;;;;;;6.97;4.43;;;;;;;20.37;63.64;100376.91;5055557;28;20052;-69
2021/06/17 00:15:25;;;;;;;6.47;4.43;;;;;;;20.41;64.05;100382.88;5055486;28;20402;-68
2021/06/17 00:17:54;;;;;;;7.28;4.50;;;;;;;20.39;63.91;100380.31;5055459;28;20493;-70
2021/06/17 00:20:24;;;;;;;9.27;4.57;;;;;;;20.29;64.26;100387.66;5055545;28;20628;-70
2021/06/17 00:22:53;;;;;;;10.35;5.22;;;;;;;20.18;64.74;100377.03;5055392;28;20051;-66
2021/06/17 00:25:21;;;;;;;7.47;4.53;;;;;;;20.12;65.06;100380.34;5055516;28;20052;-67
2021/06/17 00:27:51;;;;;;;7.35;4.63;;;;;;;20.20;64.72;100380.44;5055055;28;20490;-67
2021/06/17 00:30:20;;;;;;;9.43;4.95;;;;;;;19.96;65.70;100381.81;5055262;28;20044;-67
2021/06/17 00:32:50;;;;;;;10.30;4.70;;;;;;;19.97;65.58;100380.81;5054792;28;20368;-68
2021/06/17 00:35:20;;;;;;;8.32;5.45;;;;;;;19.80;66.37;100383.47;5055414;28;20060;-70
2021/06/17 00:37:48;;;;;;;8.45;5.18;;;;;;;19.96;65.65;100386.38;5054154;28;20474;-70
2021/06/17 00:40:18;;;;;;;7.80;4.70;;;;;;;20.02;65.49;100389.34;5055496;28;20075;-68
2021/06/17 00:42:50;;;;;;;7.70;4.60;;;;;;;20.02;65.34;100394.78;5054635;28;20407;-70
2021/06/17 00:45:21;;;;;;;7.35;4.68;;;;;;;19.99;65.44;100395.06;5055291;28;20053;-70
2021/06/17 00:47:50;;;;;;;6.82;4.60;;;;;;;19.97;65.23;100399.75;5055025;28;20429;-70
2021/06/17 00:50:21;;;;;;;7.85;4.38;;;;;;;19.99;65.33;100397.78;5054917;28;20397;-68
2021/06/17 00:52:50;;;;;;;7.72;4.22;;;;;;;19.93;65.84;100392.09;5054775;28;20080;-68
2021/06/17 00:55:18;;;;;;;9.60;4.70;;;;;;;19.83;66.16;100394.00;5054772;28;20049;-69
2021/06/17 00:57:47;;;;;;;7.78;4.20;;;;;;;19.82;66.15;100392.28;5054512;28;20051;-69
2021/06/17 01:00:17;;;;;;;7.00;4.20;;;;;;;19.79;66.16;100388.03;5054698;28;20063;-68
2021/06/17 01:02:46;;;;;;;8.93;4.43;;;;;;;19.90;65.99;100384.28;5054434;28;20110;-69
2021/06/17 01:05:17;;;;;;;6.15;4.28;;;;;;;19.80;66.13;100384.34;5054771;28;20036;-70
2021/06/17 01:07:58;;;;;;;7.63;4.40;;;;;;;19.79;66.30;100388.03;5054746;28;20060;-69
2021/06/17 01:10:31;;;;;;;8.18;4.60;;;;;;;19.85;65.93;100392.84;5054831;28;20123;-69
2021/06/17 01:13:10;;;;;;;7.00;4.68;;;;;;;19.64;66.96;100394.91;5054687;28;20110;-70
2021/06/17 01:16:05;;;;;;;10.52;4.30;;;;;;;19.63;66.96;100387.81;5054472;28;20049;-69
2021/06/17 01:18:34;;;;;;;6.78;4.18;;;;;;;19.62;67.36;100383.41;5053870;28;20212;-75
2021/06/17 01:21:09;;;;;;;6.65;4.28;;;;;;;19.58;67.13;100384.66;5054289;28;20071;-71
2021/06/17 01:24:10;;;;;;;6.88;4.53;;;;;;;19.47;68.06;100382.09;5054189;28;20037;-71
2021/06/17 01:26:55;;;;;;;6.72;4.40;;;;;;;19.58;67.41;100385.53;5051342;28;20139;-71
2021/06/17 01:29:26;;;;;;;7.15;4.47;;;;;;;19.40;68.26;100388.13;5054164;28;20049;-70
2021/06/17 01:31:55;;;;;;;7.07;4.47;;;;;;;19.30;69.04;100387.28;5053940;28;20053;-71
2021/06/17 01:34:25;;;;;;;6.90;4.70;;;;;;;19.22;69.00;100383.59;5053970;28;20124;-70
2021/06/17 01:36:59;;;;;;;8.02;4.97;;;;;;;19.28;68.92;100388.41;5053827;28;20080;-71
2021/06/17 01:39:31;;;;;;;7.00;4.70;;;;;;;19.14;68.86;100385.16;5053930;28;20482;-71
2021/06/17 01:42:01;;;;;;;8.82;5.07;;;;;;;19.16;69.31;100385.88;5053833;28;20372;-70
2021/06/17 01:44:33;;;;;;;10.05;5.00;;;;;;;19.29;68.25;100388.25;5053964;28;20056;-71
2021/06/17 01:47:03;;;;;;;7.70;4.80;;;;;;;19.30;68.07;100386.41;5054028;28;20075;-71
2021/06/17 01:49:32;;;;;;;11.60;4.50;;;;;;;19.26;68.07;100385.84;5052669;28;20103;-69
2021/06/17 01:52:01;;;;;;;6.50;3.92;;;;;;;19.27;67.43;100384.00;5053649;28;20430;-69
2021/06/17 01:54:31;;;;;;;9.52;4.68;;;;;;;19.18;67.75;100383.00;5054153;28;20059;-70
2021/06/17 01:57:02;;;;;;;5.85;4.47;;;;;;;19.11;67.88;100380.06;5053687;28;20080;-71
2021/06/17 01:59:33;;;;;;;7.93;5.05;;;;;;;19.12;67.95;100378.19;5053619;28;20041;-71
2021/06/17 02:02:03;;;;;;;7.82;4.30;;;;;;;19.04;68.17;100386.16;5053505;28;20127;-72
2021/06/17 02:04:32;;;;;;;7.03;4.47;;;;;;;19.09;68.07;100375.75;5053557;28;20049;-71
2021/06/17 02:07:01;;;;;;;6.07;4.00;;;;;;;19.08;67.89;100382.19;5052984;28;20489;-70
2021/06/17 02:09:30;;;;;;;7.65;4.18;;;;;;;19.08;68.11;100382.19;5053311;28;20052;-70
2021/06/17 02:11:59;;;;;;;8.48;4.57;;;;;;;19.10;67.95;100380.16;5053062;28;20045;-70
2021/06/17 02:14:29;;;;;;;8.40;4.35;;;;;;;19.07;68.33;100380.47;5053476;28;20041;-71
2021/06/17 02:17:02;;;;;;;9.77;4.53;;;;;;;19.12;68.37;100373.66;5052975;28;20045;-71
2021/06/17 02:19:32;;;;;;;6.60;4.72;;;;;;;19.04;68.51;100378.91;5053521;28;20045;-71
2021/06/17 02:22:03;;;;;;;10.00;4.93;;;;;;;18.86;69.54;100383.31;5053148;28;20441;-71
2021/06/17 02:24:35;;;;;;;8.23;4.60;;;;;;;18.82;70.11;100382.78;5053318;28;20529;-70
2021/06/17 02:27:08;;;;;;;9.07;4.50;;;;;;;18.80;69.99;100387.44;5053160;28;20071;-70
2021/06/17 02:29:41;;;;;;;7.70;4.73;;;;;;;18.85;69.68;100376.22;5052074;28;20107;-71
2021/06/17 02:32:15;;;;;;;7.53;5.03;;;;;;;18.78;70.15;100389.44;5053457;28;20049;-70
2021/06/17 02:34:45;;;;;;;6.82;4.40;;;;;;;18.89;69.63;100388.44;5052937;28;20099;-70
2021/06/17 02:37:15;;;;;;;9.20;4.90;;;;;;;18.99;69.50;100393.84;5052879;28;20091;-69
2021/06/17 02:39:45;;;;;;;8.98;4.85;;;;;;;18.83;70.23;100391.72;5052410;28;20166;-70
2021/06/17 02:42:16;;;;;;;6.55;4.65;;;;;;;18.80;70.26;100395.53;5052677;28;20367;-69
2021/06/17 02:44:47;;;;;;;6.90;4.70;;;;;;;18.80;70.53;100389.28;5052333;28;20087;-71
2021/06/17 02:47:18;;;;;;;7.97;5.15;;;;;;;18.80;70.45;100382.03;5053100;28;20052;-70
2021/06/17 02:49:47;;;;;;;9.65;5.05;;;;;;;18.73;70.86;100386.31;5052827;28;20048;-70
2021/06/17 02:52:15;;;;;;;8.23;5.03;;;;;;;18.88;70.48;100384.88;5052679;28;20055;-69
2021/06/17 02:54:43;;;;;;;8.43;4.72;;;;;;;19.02;69.57;100380.91;5051104;28;20052;-69
2021/06/17 02:57:23;;;;;;;7.10;4.72;;;;;;;18.99;69.86;100389.28;5052905;28;20115;-71
2021/06/17 03:00:08;;;;;;;8.13;5.20;;;;;;;18.99;69.67;100388.44;5052891;28;20490;-70
2021/06/17 03:02:45;;;;;;;8.68;5.03;;;;;;;18.84;70.44;100386.19;5056966;28;20033;-70
2021/06/17 03:05:18;;;;;;;6.88;5.15;;;;;;;18.87;70.46;100385.88;5056820;28;20427;-69
2021/06/17 03:07:51;;;;;;;8.63;4.97;;;;;;;18.94;70.21;100385.31;5056595;28;20053;-70
2021/06/17 03:10:23;;;;;;;8.13;5.18;;;;;;;19.02;69.88;100377.34;5057155;28;20041;-71
2021/06/17 03:12:53;;;;;;;8.82;5.35;;;;;;;19.03;69.80;100384.47;5055850;28;20441;-71
2021/06/17 03:15:26;;;;;;;9.02;5.60;;;;;;;19.20;68.88;100382.88;5056838;28;20044;-71
2021/06/17 03:17:57;;;;;;;9.23;5.40;;;;;;;19.06;69.46;100386.88;5056546;28;20059;-71
2021/06/17 03:20:27;;;;;;;7.90;5.00;;;;;;;19.24;68.27;100385.16;5056787;28;20045;-71
2021/06/17 03:22:57;;;;;;;8.27;5.18;;;;;;;19.20;68.65;100390.97;5056163;28;20041;-72
2021/06/17 03:25:27;;;;;;;13.48;5.45;;;;;;;19.49;67.41;100389.06;5056479;28;20447;-71
2021/06/17 03:27:57;;;;;;;8.40;5.45;;;;;;;19.49;67.09;100378.25;5056249;28;20425;-72
2021/06/17 03:30:28;;;;;;;7.55;5.07;;;;;;;19.74;65.78;100384.91;5059852;28;20103;-72
2021/06/17 03:33:00;;;;;;;8.38;4.45;;;;;;;19.90;65.00;100387.84;5057743;28;20045;-71
2021/06/17 03:35:32;;;;;;;7.60;5.05;;;;;;;20.42;63.31;100390.84;5056642;28;20041;-70
2021/06/17 03:38:02;;;;;;;8.77;5.07;;;;;;;21.18;60.27;100393.13;5054611;28;20410;-70
2021/06/17 03:40:32;;;;;;;8.73;4.20;;;;;;;21.65;58.54;100387.41;5056972;28;20041;-70
2021/06/17 03:43:01;;;;;;;9.20;5.00;;;;;;;22.32;56.81;100390.31;5056057;28;20051;-71
2021/06/17 03:45:30;;;;;;;9.40;4.45;;;;;;;22.89;54.71;100387.75;5056259;28;20076;-71
2021/06/17 03:48:03;;;;;;;9.80;4.50;;;;;;;23.74;52.11;100390.94;5056015;28;20053;-70
2021/06/17 03:50:33;;;;;;;8.52;3.90;;;;;;;24.22;50.42;100387.19;5056056;28;20049;-72
2021/06/17 03:53:02;;;;;;;6.88;4.28;;;;;;;24.48;50.01;100379.59;5055498;28;20073;-71
2021/06/17 03:55:34;;;;;;;9.38;4.30;;;;;;;24.67;49.02;100378.28;5055753;28;20091;-74
2021/06/17 03:58:02;;;;;;;6.18;3.90;;;;;;;24.44;49.31;100382.88;5055474;28;20041;-71
2021/06/17 04:00:34;;;;;;;7.88;3.63;;;;;;;24.31;49.75;100380.69;5055856;28;20045;-70
2021/06/17 04:03:07;;;;;;;6.97;4.03;;;;;;;25.05;47.70;100384.69;5055334;28;20048;-71
2021/06/17 04:05:36;;;;;;;7.32;4.03;;;;;;;24.77;47.90;100378.06;5055870;28;20040;-73
2021/06/17 04:08:08;;;;;;;6.25;3.97;;;;;;;25.50;46.46;100380.22;5055415;28;20053;-72
2021/06/17 04:10:38;;;;;;;7.23;3.93;;;;;;;25.90;45.20;100378.94;5055944;28;20051;-73
2021/06/17 04:13:10;;;;;;;8.35;4.15;;;;;;;26.10;44.78;100376.47;5054388;28;20466;-72
2021/06/17 04:15:39;;;;;;;6.45;3.90;;;;;;;26.65;43.30;100369.63;5055768;28;20124;-70
2021/06/17 04:18:10;;;;;;;6.72;4.30;;;;;;;26.57;43.60;100377.09;5055287;28;20835;-70
2021/06/17 04:20:43;;;;;;;6.35;3.90;;;;;;;27.18;41.79;100370.16;5055570;28;20127;-72
2021/06/17 04:23:15;;;;;;;7.97;4.07;;;;;;;26.97;42.29;100372.88;5055233;28;20056;-73
2021/06/17 04:25:45;;;;;;;5.85;3.63;;;;;;;27.26;41.31;100372.75;5055612;28;20444;-70
2021/06/17 04:28:14;;;;;;;8.30;4.03;;;;;;;27.72;40.88;100371.44;5054996;28;20474;-71
2021/06/17 04:30:45;;;;;;;10.98;3.90;;;;;;;27.70;40.76;100371.66;5055702;28;20044;-71
2021/06/17 04:33:19;;;;;;;7.38;4.05;;;;;;;27.85;39.92;100360.56;5054855;28;20049;-70
2021/06/17 04:35:55;;;;;;;9.00;4.00;;;;;;;27.95;39.18;100372.00;5055037;28;20119;-71
2021/06/17 04:38:23;;;;;;;6.03;3.80;;;;;;;28.29;39.08;100373.06;5055354;28;20182;-70
2021/06/17 04:40:52;;;;;;;7.10;4.05;;;;;;;28.61;38.52;100376.97;5054887;28;20338;-77
2021/06/17 04:43:22;;;;;;;6.50;3.67;;;;;;;27.27;40.43;100382.66;5058811;28;20160;-69
2021/06/17 04:45:52;;;;;;;6.28;3.63;;;;;;;27.91;39.50;100379.78;5055067;28;20047;-70
2021/06/17 04:48:24;;;;;;;6.47;3.88;;;;;;;28.68;38.11;100375.94;5054892;28;20053;-68
2021/06/17 04:50:52;;;;;;;8.30;4.10;;;;;;;29.08;37.52;100378.78;5054782;28;20080;-74
2021/06/17 04:53:21;;;;;;;7.93;4.00;;;;;;;28.43;38.54;100381.13;5054650;28;20132;-69
2021/06/17 04:55:51;;;;;;;7.00;3.55;;;;;;;28.99;37.00;100369.91;5054786;28;20045;-67
2021/06/17 04:58:21;;;;;;;7.93;3.90;;;;;;;29.57;35.85;100372.88;5054744;28;20056;-69
2021/06/17 05:00:50;;;;;;;7.60;4.00;;;;;;;30.71;33.98;100372.34;5053532;28;20103;-68
2021/06/17 05:03:18;;;;;;;8.35;4.05;;;;;;;30.01;34.39;100378.69;5054341;28;20057;-69
2021/06/17 05:05:50;;;;;;;7.55;3.67;;;;;;;29.41;36.07;100377.94;5054298;28;20041;-68
2021/06/17 05:11:04;;;;;;;7.75;3.45;;;;;;;30.07;34.10;100384.22;5054142;28;20280;-67
2021/06/17 05:13:33;;;;;;;7.78;4.28;;;;;;;29.83;34.39;100391.25;5054552;28;20123;-67
2021/06/17 05:16:03;;;;;;;8.73;3.75;;;;;;;30.40;33.42;100386.00;5054073;28;20041;-67
2021/06/17 05:18:32;;;;;;;9.75;4.00;;;;;;;30.37;33.31;100394.69;5054782;28;20478;-67
2021/06/17 05:21:02;;;;;;;7.72;3.80;;;;;;;29.37;35.40;100402.25;5054144;28;20049;-68
2021/06/17 05:23:31;;;;;;;6.05;3.58;;;;;;;29.83;34.96;100406.91;5054070;28;20087;-66
2021/06/17 05:26:00;;;;;;;8.55;3.65;;;;;;;30.51;33.85;100403.75;5054299;28;20488;-67
2021/06/17 05:28:30;;;;;;;7.40;3.65;;;;;;;31.05;32.93;100403.25;5054418;28;20040;-68
2021/06/17 05:31:00;;;;;;;8.55;3.38;;;;;;;30.71;33.30;100397.09;5053887;28;20095;-67
2021/06/17 05:33:30;;;;;;;9.90;4.30;;;;;;;30.21;34.26;100407.03;5054451;28;20052;-67
2021/06/17 05:35:59;;;;;;;7.53;3.78;;;;;;;30.84;33.02;100406.34;5053928;28;20041;-69
2021/06/17 05:38:31;;;;;;;7.00;3.78;;;;;;;30.96;33.25;100407.31;5054205;28;20041;-66
2021/06/17 05:40:59;;;;;;;6.72;3.65;;;;;;;31.25;32.29;100397.59;5053570;28;20045;-67
2021/06/17 05:43:28;;;;;;;6.80;3.70;;;;;;;31.72;32.10;100404.41;5054047;28;20049;-67
2021/06/17 05:45:57;;;;;;;8.05;3.80;;;;;;;31.63;32.20;100411.28;5053998;28;20049;-76
2021/06/17 05:48:25;;;;;;;6.07;3.90;;;;;;;31.75;32.04;100419.66;5054181;28;20056;-69
2021/06/17 05:50:54;;;;;;;8.98;4.50;;;;;;;32.19;31.41;100413.06;5054032;28;20049;-69
2021/06/17 05:53:22;;;;;;;9.98;3.90;;;;;;;32.30;31.15;100417.00;5053557;28;20572;-70
2021/06/17 05:55:52;;;;;;;7.15;3.80;;;;;;;32.98;29.67;100412.06;5053898;28;20079;-67
2021/06/17 05:58:20;;;;;;;7.53;3.70;;;;;;;32.78;29.89;100408.72;5053425;28;20053;-69
2021/06/17 06:00:48;;;;;;;8.98;3.72;;;;;;;32.68;30.48;100414.81;5053799;28;20087;-69
2021/06/17 06:03:16;;;;;;;5.88;3.92;;;;;;;33.27;29.70;100418.63;5053691;28;20048;-69
2021/06/17 06:05:45;;;;;;;6.72;3.60;;;;;;;32.99;30.06;100424.81;5053772;28;20045;-70
2021/06/17 06:08:14;;;;;;;7.43;3.58;;;;;;;33.09;29.96;100423.41;5053413;28;20490;-69
2021/06/17 06:10:44;;;;;;;6.28;3.42;;;;;;;33.13;30.12;100428.22;5053725;28;20045;-69
2021/06/17 06:13:14;;;;;;;7.57;3.88;;;;;;;33.18;29.88;100430.28;5053683;28;20047;-69
2021/06/17 06:15:42;;;;;;;6.95;3.40;;;;;;;33.09;29.82;100427.00;5053238;28;20049;-68
2021/06/17 06:18:14;;;;;;;7.18;3.80;;;;;;;33.16;30.18;100426.91;5053331;28;20056;-66
2021/06/17 06:20:44;;;;;;;7.93;3.53;;;;;;;33.75;29.17;100420.41;5053183;28;20045;-68
2021/06/17 06:23:13;;;;;;;9.45;3.70;;;;;;;33.68;28.34;100433.50;5053102;28;20265;-68
2021/06/17 06:25:45;;;;;;;8.60;3.78;;;;;;;33.74;28.26;100431.72;5053310;28;20486;-68
2021/06/17 06:28:14;;;;;;;7.60;3.67;;;;;;;33.10;29.86;100436.13;5052982;28;20482;-72
2021/06/17 06:30:43;;;;;;;5.90;3.28;;;;;;;32.88;30.35;100433.91;5053334;28;20045;-72
2021/06/17 06:33:12;;;;;;;8.10;3.80;;;;;;;33.47;29.68;100431.31;5052978;28;20501;-70
2021/06/17 06:35:40;;;;;;;6.95;3.72;;;;;;;33.45;29.51;100426.03;5053134;28;20148;-70
2021/06/17 06:38:10;;;;;;;8.50;3.67;;;;;;;34.40;28.19;100433.28;5052915;28;20073;-70
2021/06/17 06:40:39;;;;;;;7.72;3.67;;;;;;;34.14;26.60;100429.91;5053192;28;20053;-69
2021/06/17 06:43:12;;;;;;;7.15;3.50;;;;;;;34.39;25.77;100423.28;5052821;28;20049;-70
2021/06/17 06:45:46;;;;;;;6.10;3.50;;;;;;;34.32;25.44;100428.09;5053172;28;20045;-70
2021/06/17 06:48:16;;;;;;;6.43;3.53;;;;;;;33.97;26.48;100434.53;5052666;28;20103;-70
2021/06/17 06:50:45;;;;;;;7.50;3.58;;;;;;;33.08;27.61;100436.38;5052949;28;20040;-70
2021/06/17 06:53:13;;;;;;;8.48;3.50;;;;;;;33.25;27.60;100434.63;5052544;28;20052;-70
2021/06/17 06:55:42;;;;;;;6.85;3.47;;;;;;;32.45;28.06;100443.16;5052872;28;20041;-69
2021/06/17 06:58:13;;;;;;;5.90;3.63;;;;;;;31.76;29.32;100436.03;5052514;28;20040;-69
2021/06/17 07:00:44;;;;;;;6.70;3.60;;;;;;;30.42;31.55;100438.94;5053017;28;20397;-69
2021/06/17 07:03:13;;;;;;;5.68;3.60;;;;;;;29.83;32.67;100442.63;5052450;28;20497;-69
2021/06/17 07:05:41;;;;;;;9.75;4.25;;;;;;;30.00;32.93;100437.50;5052670;28;20478;-69
2021/06/17 07:08:10;;;;;;;6.70;4.00;;;;;;;29.12;33.92;100442.34;5052585;28;20427;-69
2021/06/17 07:10:40;;;;;;;8.63;4.10;;;;;;;29.26;34.15;100436.69;5053271;28;20498;-69
2021/06/17 07:13:09;;;;;;;5.97;3.80;;;;;;;29.20;34.45;100440.25;5052989;28;20444;-69
2021/06/17 07:15:37;;;;;;;10.20;5.90;;;;;;;29.01;34.86;100449.31;5052635;28;20159;-69
2021/06/17 07:18:08;;;;;;;7.03;4.18;;;;;;;28.85;35.10;100447.75;5052427;28;20045;-69
2021/06/17 07:20:37;;;;;;;6.85;3.72;;;;;;;28.78;35.45;100445.00;5052462;28;20091;-69
2021/06/17 07:23:05;;;;;;;9.40;3.70;;;;;;;28.91;35.41;100455.19;5052264;28;20103;-69
2021/06/17 07:25:33;;;;;;;6.30;3.88;;;;;;;28.82;34.67;100434.44;5052330;28;20041;-69
2021/06/17 07:28:02;;;;;;;5.32;3.58;;;;;;;28.46;35.30;100446.53;5052575;28;20049;-69
2021/06/17 07:30:31;;;;;;;6.57;3.67;;;;;;;28.55;35.66;100440.88;5052558;28;20037;-69
2021/06/17 07:32:59;;;;;;;7.53;3.80;;;;;;;28.84;34.48;100442.47;5052430;28;20049;-69
2021/06/17 07:35:30;;;;;;;5.68;3.83;;;;;;;29.15;34.77;100442.81;5052099;28;20045;-69
2021/06/17 07:37:58;;;;;;;6.72;3.53;;;;;;;29.33;34.40;100450.41;5052396;28;20458;-69
2021/06/17 07:40:27;;;;;;;7.65;3.53;;;;;;;29.44;33.78;100444.31;5052163;28;20490;-69
2021/06/17 07:42:55;;;;;;;8.90;4.20;;;;;;;29.19;34.59;100452.31;5052454;28;20399;-69
2021/06/17 07:45:26;;;;;;;5.00;3.60;;;;;;;28.52;35.06;100439.41;5051969;28;20052;-69
2021/06/17 07:47:54;;;;;;;5.40;3.50;;;;;;;28.39;35.01;100445.69;5055974;28;20398;-69
2021/06/17 07:50:23;;;;;;;7.57;3.80;;;;;;;28.50;35.63;100439.63;5055938;28;20044;-69
2021/06/17 07:52:52;;;;;;;6.35;3.25;;;;;;;28.74;34.37;100443.69;5056238;28;20040;-69
2021/06/17 07:55:21;;;;;;;6.70;4.28;;;;;;;28.87;35.02;100437.44;5056026;28;20040;-69
2021/06/17 07:57:50;;;;;;;5.97;3.40;;;;;;;28.49;36.28;100435.19;5056174;28;20048;-69
2021/06/17 08:00:19;;;;;;;6.30;3.60;;;;;;;28.70;35.58;100434.19;5055640;28;20049;-68
2021/06/17 08:02:47;;;;;;;6.00;3.75;;;;;;;28.81;35.10;100438.25;5055958;28;20041;-68
2021/06/17 08:05:15;;;;;;;6.47;4.05;;;;;;;28.77;35.06;100432.34;5055830;28;20037;-68
2021/06/17 08:07:44;;;;;;;6.53;3.85;;;;;;;28.98;34.97;100431.34;5056267;28;20098;-68
2021/06/17 08:10:14;;;;;;;8.70;4.95;;;;;;;28.84;35.30;100426.00;5055669;28;20044;-70
2021/06/17 08:12:42;;;;;;;7.90;4.32;;;;;;;28.40;36.06;100432.81;5055763;28;20482;-69
2021/06/17 08:15:11;;;;;;;10.35;4.93;;;;;;;28.35;36.87;100438.91;5055771;28;20449;-69
2021/06/17 08:17:40;;;;;;;7.55;4.50;;;;;;;28.35;36.39;100427.94;5055844;28;20048;-69
2021/06/17 08:20:12;;;;;;;8.07;4.95;;;;;;;28.60;36.41;100425.50;5055435;28;20041;-70
2021/06/17 08:22:42;;;;;;;10.20;4.97;;;;;;;28.20;35.84;100435.44;5055598;28;20041;-69
2021/06/17 08:25:12;;;;;;;8.75;5.90;;;;;;;28.32;36.80;100436.56;5055272;28;20067;-69
2021/06/17 08:27:42;;;;;;;9.48;5.03;;;;;;;28.33;36.76;100431.94;5055539;28;20051;-68
2021/06/17 08:30:14;;;;;;;6.82;4.38;;;;;;;28.49;36.88;100421.47;5055322;28;20045;-68
2021/06/17 08:32:42;;;;;;;12.25;4.60;;;;;;;28.72;36.62;100432.09;5055776;28;20080;-69
2021/06/17 08:35:13;;;;;;;9.70;4.60;;;;;;;28.73;36.35;100432.94;5055162;28;20445;-70
2021/06/17 08:37:43;;;;;;;8.73;4.33;;;;;;;28.44;37.10;100432.19;5055330;28;20045;-68
2021/06/17 08:40:12;;;;;;;7.93;4.07;;;;;;;28.79;36.22;100434.88;5055000;28;20045;-68
2021/06/17 08:42:42;;;;;;;6.25;4.45;;;;;;;28.72;36.68;100439.47;5055387;28;20052;-69
2021/06/17 08:45:11;;;;;;;9.98;4.22;;;;;;;28.37;37.51;100439.53;5055152;28;20095;-69
2021/06/17 08:47:40;;;;;;;6.93;4.45;;;;;;;28.22;37.78;100438.81;5054755;28;21225;-69
2021/06/17 08:50:11;;;;;;;6.65;4.18;;;;;;;27.99;38.35;100436.38;5055148;28;20048;-69
2021/06/17 08:52:40;;;;;;;9.85;4.65;;;;;;;28.04;38.40;100424.78;5055091;28;20128;-70
2021/06/17 08:55:18;;;;;;;5.97;4.10;;;;;;;28.42;38.39;100428.81;5054916;28;20037;-68
2021/06/17 08:57:50;;;;;;;8.30;4.15;;;;;;;28.55;37.79;100435.41;5054304;28;20068;-68
2021/06/17 09:00:38;;;;;;;7.03;4.15;;;;;;;28.76;37.80;100436.13;5054734;28;20083;-69
2021/06/17 09:03:08;;;;;;;7.20;3.72;;;;;;;28.74;36.93;100440.94;5053630;28;20406;-68
2021/06/17 09:05:41;;;;;;;9.15;6.60;;;;;;;28.82;37.16;100437.19;5055001;28;20045;-68
2021/06/17 09:08:11;;;;;;;6.40;3.72;;;;;;;28.66;37.33;100437.53;5055021;28;20051;-67
2021/06/17 09:10:41;;;;;;;6.50;4.00;;;;;;;28.89;36.83;100440.84;5054860;28;20041;-68
2021/06/17 09:13:12;;;;;;;7.80;4.00;;;;;;;28.92;36.26;100445.91;5054525;28;20085;-70
2021/06/17 09:15:43;;;;;;;9.50;4.07;;;;;;;28.76;36.50;100447.09;5054913;28;20091;-70
2021/06/17 09:18:14;;;;;;;9.60;4.30;;;;;;;28.73;36.02;100447.50;5054369;28;20044;-70
2021/06/17 09:20:51;;;;;;;5.88;3.70;;;;;;;28.70;35.49;100441.59;5054851;28;20045;-69
2021/06/17 09:23:31;;;;;;;5.75;4.03;;;;;;;28.56;36.49;100445.31;5054249;28;20044;-69
2021/06/17 09:26:02;;;;;;;8.30;4.00;;;;;;;28.56;35.70;100440.66;5053138;28;20131;-69
2021/06/17 09:28:48;;;;;;;7.28;3.97;;;;;;;28.87;34.95;100437.44;5054180;28;20045;-69
2021/06/17 09:31:18;;;;;;;8.18;3.65;;;;;;;29.06;34.51;100460.53;5054293;28;20041;-69
2021/06/17 09:33:49;;;;;;;6.70;3.50;;;;;;;28.62;35.68;100450.00;5054432;28;20068;-69
2021/06/17 09:36:21;;;;;;;10.13;4.03;;;;;;;28.94;35.89;100445.69;5054044;28;20045;-69
2021/06/17 09:38:51;;;;;;;8.52;3.80;;;;;;;29.05;35.41;100450.59;5054491;28;20044;-69
2021/06/17 09:41:34;;;;;;;8.55;3.70;;;;;;;29.21;35.14;100449.34;5053867;28;20045;-69
2021/06/17 09:44:07;;;;;;;6.68;3.53;;;;;;;28.55;34.84;100443.63;5054199;28;20119;-69
2021/06/17 09:46:36;;;;;;;6.53;3.55;;;;;;;28.50;35.68;100456.06;5053907;28;20107;-69
2021/06/17 09:49:07;;;;;;;8.45;3.95;;;;;;;28.70;34.40;100453.41;5054030;28;20049;-69
2021/06/17 09:51:41;;;;;;;5.70;3.40;;;;;;;28.94;33.36;100449.28;5053781;28;20057;-69
2021/06/17 09:54:20;;;;;;;5.97;3.47;;;;;;;29.02;33.89;100451.84;5054029;28;20112;-69
2021/06/17 09:56:57;;;;;;;6.97;3.17;;;;;;;28.96;32.89;100447.19;5054233;28;20135;-69
2021/06/17 09:59:42;;;;;;;8.35;4.05;;;;;;;28.92;33.86;100439.56;5053568;28;20068;-69
2021/06/17 10:02:16;;;;;;;5.68;3.08;;;;;;;29.07;33.12;100438.34;5053898;28;20044;-69
2021/06/17 10:04:45;;;;;;;5.47;3.28;;;;;;;28.89;33.76;100440.84;5053944;28;20045;-69
2021/06/17 10:07:13;;;;;;;5.43;3.40;;;;;;;28.71;33.61;100435.88;5053765;28;20409;-69
2021/06/17 10:09:42;;;;;;;7.85;3.45;;;;;;;28.96;32.78;100425.22;5052754;28;20037;-69
2021/06/17 10:12:10;;;;;;;6.07;3.60;;;;;;;29.18;33.13;100427.81;5053720;28;20041;-69
2021/06/17 10:14:40;;;;;;;6.43;3.17;;;;;;;29.04;33.87;100430.50;5053347;28;20056;-69
2021/06/17 10:17:09;;;;;;;5.68;3.47;;;;;;;29.15;32.63;100415.34;5053493;28;20075;-69
2021/06/17 10:19:38;;;;;;;7.47;3.58;;;;;;;29.30;32.82;100426.13;5053156;28;20053;-68
2021/06/17 10:22:07;;;;;;;5.15;3.60;;;;;;;29.26;32.17;100422.09;5053293;28;20135;-69
2021/06/17 10:24:39;;;;;;;6.82;3.50;;;;;;;29.42;32.12;100424.41;5053073;28;20086;-69
2021/06/17 10:27:10;;;;;;;6.78;3.63;;;;;;;29.50;31.59;100421.50;5053343;28;20041;-69
2021/06/17 10:29:42;;;;;;;5.28;3.05;;;;;;;29.44;31.59;100416.00;5053204;28;20055;-69
2021/06/17 10:32:15;;;;;;;5.10;3.10;;;;;;;29.15;31.21;100428.22;5053106;28;20482;-69
2021/06/17 10:34:55;;;;;;;5.35;3.10;;;;;;;29.22;30.24;100424.41;5053164;28;20037;-69
2021/06/17 10:37:27;;;;;;;4.45;2.80;;;;;;;29.19;30.95;100419.34;5053178;28;20048;-69
2021/06/17 10:40:02;;;;;;;6.47;3.80;;;;;;;29.31;31.74;100417.66;5053306;28;20124;-68
2021/06/17 10:42:34;;;;;;;5.47;3.47;;;;;;;29.29;32.58;100419.78;5052859;28;20052;-68
2021/06/17 10:45:06;;;;;;;5.95;3.60;;;;;;;29.35;31.79;100420.84;5052914;28;20128;-68
2021/06/17 10:47:52;;;;;;;5.50;3.17;;;;;;;29.11;31.32;100415.94;5052366;28;20037;-69
2021/06/17 10:50:21;;;;;;;6.22;3.80;;;;;;;29.10;31.11;100412.34;5051628;28;20049;-71
2021/06/17 10:52:52;;;;;;;6.47;3.33;;;;;;;28.94;31.86;100415.50;5055252;28;20076;-68
2021/06/17 10:55:22;;;;;;;6.78;3.42;;;;;;;28.89;32.11;100410.63;5056455;28;20045;-73
2021/06/17 10:57:56;;;;;;;5.38;3.30;;;;;;;28.91;31.89;100405.78;5054032;28;20075;-68
2021/06/17 11:00:47;;;;;;;5.85;3.17;;;;;;;28.84;32.49;100404.88;5052811;28;20051;-68
2021/06/17 11:03:38;;;;;;;5.78;3.28;;;;;;;28.78;32.38;100402.97;5053179;28;20052;-68
2021/06/17 11:06:06;;;;;;;6.22;3.40;;;;;;;28.66;33.45;100407.34;5052628;28;20045;-68
2021/06/17 11:08:34;;;;;;;6.00;3.78;;;;;;;28.59;33.10;100409.25;5052629;28;20398;-68
2021/06/17 11:11:05;;;;;;;9.95;6.05;;;;;;;28.58;32.06;100394.69;5052879;28;20120;-68
2021/06/17 11:13:36;;;;;;;7.82;3.97;;;;;;;29.16;32.09;100408.78;5052539;28;20045;-68
2021/06/17 11:16:07;;;;;;;5.30;3.60;;;;;;;29.24;32.58;100404.97;5052497;28;20350;-68
2021/06/17 11:18:58;;;;;;;7.90;4.00;;;;;;;29.50;32.34;100409.66;5052323;28;20106;-70
2021/06/17 11:21:43;;;;;;;6.85;3.80;;;;;;;29.20;32.48;100403.72;5054067;28;20371;-70
2021/06/17 11:24:33;;;;;;;6.95;4.15;;;;;;;28.99;33.66;100394.59;5056150;28;20453;-68
2021/06/17 11:27:02;;;;;;;7.55;3.85;;;;;;;28.67;34.60;100396.19;5056515;28;20049;-68
2021/06/17 11:29:57;;;;;;;5.00;3.63;;;;;;;28.82;33.88;100384.19;5056503;28;20044;-69
2021/06/17 11:32:29;;;;;;;5.57;3.70;;;;;;;28.97;33.49;100393.97;5056531;28;20398;-68
2021/06/17 11:34:58;;;;;;;6.80;3.90;;;;;;;28.94;31.91;100394.38;5056559;28;20041;-68
2021/06/17 11:37:31;;;;;;;5.78;3.58;;;;;;;28.91;32.29;100378.31;5056087;28;20037;-70
2021/06/17 11:40:00;;;;;;;5.65;3.50;;;;;;;28.99;32.40;100383.63;5056574;28;20067;-68
2021/06/17 11:42:29;;;;;;;6.78;3.53;;;;;;;28.88;31.50;100384.22;5056080;28;20037;-70
2021/06/17 11:44:59;;;;;;;6.88;3.55;;;;;;;28.80;32.19;100378.91;5056597;28;20037;-69